sensor_id;sensor_type;location;lat;lon;timestamp;temperature;humidity
9041;DHT22;4555;49.918;7.012;2022-10-26T00:00:39;10.80;99.90
9041;DHT22;4555;49.918;7.012;2022-10-26T00:03:08;10.70;99.90
9041;DHT22;4555;49.918;7.012;2022-10-26T00:08:01;10.70;99.90
9041;DHT22;4555;49.918;7.012;2022-10-26T00:15:20;10.80;99.90
9041;DHT22;4555;49.918;7.012;2022-10-26T00:17:47;10.80;99.90
9041;DHT22;4555;49.918;7.012;2022-10-26T00:20:20;10.90;99.90
9041;DHT22;4555;49.918;7.012;2022-10-26T00:22:46;9.80;99.90
9041;DHT22;4555;49.918;7.012;2022-10-26T00:25:14;10.90;99.90
9041;DHT22;4555;49.918;7.012;2022-10-26T00:30:07;11.00;99.90
9041;DHT22;4555;49.918;7.012;2022-10-26T00:34:59;10.90;99.90
9041;DHT22;4555;49.918;7.012;2022-10-26T00:39:51;10.90;99.90
9041;DHT22;4555;49.918;7.012;2022-10-26T00:42:19;14.00;99.90
9041;DHT22;4555;49.918;7.012;2022-10-26T00:49:57;10.80;99.90
9041;DHT22;4555;49.918;7.012;2022-10-26T00:52:27;10.90;99.90
9041;DHT22;4555;49.918;7.012;2022-10-26T00:54:53;10.90;99.90
9041;DHT22;4555;49.918;7.012;2022-10-26T00:57:20;10.90;99.90
9041;DHT22;4555;49.918;7.012;2022-10-26T00:59:47;10.80;99.90
9041;DHT22;4555;49.918;7.012;2022-10-26T01:02:14;10.80;99.90
9041;DHT22;4555;49.918;7.012;2022-10-26T01:04:44;10.80;99.90
9041;DHT22;4555;49.918;7.012;2022-10-26T01:07:14;10.80;99.90
9041;DHT22;4555;49.918;7.012;2022-10-26T01:09:41;10.80;99.90
9041;DHT22;4555;49.918;7.012;2022-10-26T01:12:08;10.80;99.90
9041;DHT22;4555;49.918;7.012;2022-10-26T01:17:22;10.70;99.90
9041;DHT22;4555;49.918;7.012;2022-10-26T01:22:58;10.80;99.90
9041;DHT22;4555;49.918;7.012;2022-10-26T01:31:27;11.00;99.90
9041;DHT22;4555;49.918;7.012;2022-10-26T01:34:02;10.90;99.90
9041;DHT22;4555;49.918;7.012;2022-10-26T01:36:39;13.90;99.90
9041;DHT22;4555;49.918;7.012;2022-10-26T01:39:37;10.90;99.90
9041;DHT22;4555;49.918;7.012;2022-10-26T01:42:04;10.90;99.90
9041;DHT22;4555;49.918;7.012;2022-10-26T01:44:44;10.90;99.90
9041;DHT22;4555;49.918;7.012;2022-10-26T01:47:14;10.90;99.90
9041;DHT22;4555;49.918;7.012;2022-10-26T01:50:01;11.00;99.90
9041;DHT22;4555;49.918;7.012;2022-10-26T01:55:31;10.90;99.90
9041;DHT22;4555;49.918;7.012;2022-10-26T01:57:51;10.80;99.90
9041;DHT22;4555;49.918;7.012;2022-10-26T02:00:18;10.90;99.90
9041;DHT22;4555;49.918;7.012;2022-10-26T02:02:59;10.90;99.90
9041;DHT22;4555;49.918;7.012;2022-10-26T02:11:10;11.00;99.90
9041;DHT22;4555;49.918;7.012;2022-10-26T02:22:20;11.00;99.90
9041;DHT22;4555;49.918;7.012;2022-10-26T02:24:47;11.10;99.90
9041;DHT22;4555;49.918;7.012;2022-10-26T02:27:24;10.80;99.90
9041;DHT22;4555;49.918;7.012;2022-10-26T02:29:56;11.00;99.90
9041;DHT22;4555;49.918;7.012;2022-10-26T02:32:30;10.90;99.90
9041;DHT22;4555;49.918;7.012;2022-10-26T02:35:07;10.90;99.90
9041;DHT22;4555;49.918;7.012;2022-10-26T02:37:37;10.90;99.90
9041;DHT22;4555;49.918;7.012;2022-10-26T02:40:06;14.60;99.90
9041;DHT22;4555;49.918;7.012;2022-10-26T02:45:06;10.90;99.90
9041;DHT22;4555;49.918;7.012;2022-10-26T02:47:34;10.90;99.90
9041;DHT22;4555;49.918;7.012;2022-10-26T02:50:01;10.90;99.90
9041;DHT22;4555;49.918;7.012;2022-10-26T02:52:36;10.90;99.90
9041;DHT22;4555;49.918;7.012;2022-10-26T02:55:26;10.90;99.90
9041;DHT22;4555;49.918;7.012;2022-10-26T02:57:59;9.60;99.90
9041;DHT22;4555;49.918;7.012;2022-10-26T03:00:28;10.80;99.90
9041;DHT22;4555;49.918;7.012;2022-10-26T03:03:12;10.80;99.90
9041;DHT22;4555;49.918;7.012;2022-10-26T03:05:51;10.80;99.90
9041;DHT22;4555;49.918;7.012;2022-10-26T03:10:44;10.90;99.90
9041;DHT22;4555;49.918;7.012;2022-10-26T03:13:11;10.90;99.90
9041;DHT22;4555;49.918;7.012;2022-10-26T03:18:04;10.80;99.90
9041;DHT22;4555;49.918;7.012;2022-10-26T03:25:23;10.80;99.90
9041;DHT22;4555;49.918;7.012;2022-10-26T03:28:00;10.90;99.90
9041;DHT22;4555;49.918;7.012;2022-10-26T03:30:27;10.90;99.90
9041;DHT22;4555;49.918;7.012;2022-10-26T03:37:47;10.90;99.90
9041;DHT22;4555;49.918;7.012;2022-10-26T03:40:15;10.80;99.90
9041;DHT22;4555;49.918;7.012;2022-10-26T03:42:42;10.80;99.90
9041;DHT22;4555;49.918;7.012;2022-10-26T03:45:09;10.80;99.90
9041;DHT22;4555;49.918;7.012;2022-10-26T03:47:45;10.80;99.90
9041;DHT22;4555;49.918;7.012;2022-10-26T03:50:27;10.80;99.90
9041;DHT22;4555;49.918;7.012;2022-10-26T03:53:22;10.80;99.90
9041;DHT22;4555;49.918;7.012;2022-10-26T03:55:49;10.90;99.90
9041;DHT22;4555;49.918;7.012;2022-10-26T04:00:42;10.90;99.90
9041;DHT22;4555;49.918;7.012;2022-10-26T04:03:08;10.80;99.90
9041;DHT22;4555;49.918;7.012;2022-10-26T04:08:00;10.70;99.90
9041;DHT22;4555;49.918;7.012;2022-10-26T04:15:21;12.80;99.90
9041;DHT22;4555;49.918;7.012;2022-10-26T04:18:00;10.50;99.90
9041;DHT22;4555;49.918;7.012;2022-10-26T04:20:28;13.80;99.90
9041;DHT22;4555;49.918;7.012;2022-10-26T04:23:01;11.90;99.90
9041;DHT22;4555;49.918;7.012;2022-10-26T04:25:28;10.50;99.90
9041;DHT22;4555;49.918;7.012;2022-10-26T04:27:55;10.50;99.90
9041;DHT22;4555;49.918;7.012;2022-10-26T04:35:13;10.40;99.90
9041;DHT22;4555;49.918;7.012;2022-10-26T04:42:43;10.50;99.90
9041;DHT22;4555;49.918;7.012;2022-10-26T04:45:17;10.50;99.90
9041;DHT22;4555;49.918;7.012;2022-10-26T04:47:43;10.50;99.90
9041;DHT22;4555;49.918;7.012;2022-10-26T04:50:15;10.40;99.90
9041;DHT22;4555;49.918;7.012;2022-10-26T04:52:50;10.40;99.90
9041;DHT22;4555;49.918;7.012;2022-10-26T04:55:20;10.50;99.90
9041;DHT22;4555;49.918;7.012;2022-10-26T04:57:47;10.50;99.90
9041;DHT22;4555;49.918;7.012;2022-10-26T05:00:12;10.50;99.90
9041;DHT22;4555;49.918;7.012;2022-10-26T05:02:38;11.00;99.90
9041;DHT22;4555;49.918;7.012;2022-10-26T05:05:04;10.60;99.90
9041;DHT22;4555;49.918;7.012;2022-10-26T05:07:30;10.60;99.90
9041;DHT22;4555;49.918;7.012;2022-10-26T05:09:55;11.00;99.90
9041;DHT22;4555;49.918;7.012;2022-10-26T05:12:21;10.60;99.90
9041;DHT22;4555;49.918;7.012;2022-10-26T05:14:47;10.60;99.90
9041;DHT22;4555;49.918;7.012;2022-10-26T05:17:12;10.60;99.90
9041;DHT22;4555;49.918;7.012;2022-10-26T05:19:38;10.60;99.90
9041;DHT22;4555;49.918;7.012;2022-10-26T05:22:04;10.60;99.90
9041;DHT22;4555;49.918;7.012;2022-10-26T05:24:29;10.60;99.90
9041;DHT22;4555;49.918;7.012;2022-10-26T05:26:55;10.60;99.90
9041;DHT22;4555;49.918;7.012;2022-10-26T05:29:21;10.60;99.90
9041;DHT22;4555;49.918;7.012;2022-10-26T05:31:46;10.60;99.90
9041;DHT22;4555;49.918;7.012;2022-10-26T05:34:12;10.60;99.90
9041;DHT22;4555;49.918;7.012;2022-10-26T05:36:37;10.60;99.90
9041;DHT22;4555;49.918;7.012;2022-10-26T05:39:03;10.50;99.90
9041;DHT22;4555;49.918;7.012;2022-10-26T05:41:29;11.50;99.90
9041;DHT22;4555;49.918;7.012;2022-10-26T05:43:54;10.50;99.90
9041;DHT22;4555;49.918;7.012;2022-10-26T05:46:20;10.50;99.90
9041;DHT22;4555;49.918;7.012;2022-10-26T05:48:45;10.50;99.90
9041;DHT22;4555;49.918;7.012;2022-10-26T05:51:11;10.60;99.90
9041;DHT22;4555;49.918;7.012;2022-10-26T05:53:37;10.60;99.90
9041;DHT22;4555;49.918;7.012;2022-10-26T05:56:26;10.60;99.90
9041;DHT22;4555;49.918;7.012;2022-10-26T05:58:58;10.60;99.90
9041;DHT22;4555;49.918;7.012;2022-10-26T06:06:56;10.70;99.90
9041;DHT22;4555;49.918;7.012;2022-10-26T06:09:23;10.70;99.90
9041;DHT22;4555;49.918;7.012;2022-10-26T06:11:49;10.70;99.90
9041;DHT22;4555;49.918;7.012;2022-10-26T06:14:15;10.70;99.90
9041;DHT22;4555;49.918;7.012;2022-10-26T06:25:10;10.80;99.90
9041;DHT22;4555;49.918;7.012;2022-10-26T06:28:02;10.80;99.90
9041;DHT22;4555;49.918;7.012;2022-10-26T06:30:29;10.80;99.90
9041;DHT22;4555;49.918;7.012;2022-10-26T06:32:55;11.40;99.90
9041;DHT22;4555;49.918;7.012;2022-10-26T06:38:16;10.80;99.90
9041;DHT22;4555;49.918;7.012;2022-10-26T06:40:45;10.90;99.90
9041;DHT22;4555;49.918;7.012;2022-10-26T06:43:22;10.90;99.90
9041;DHT22;4555;49.918;7.012;2022-10-26T06:45:59;11.00;99.90
9041;DHT22;4555;49.918;7.012;2022-10-26T06:48:27;10.90;99.90
9041;DHT22;4555;49.918;7.012;2022-10-26T06:50:54;10.90;99.90
9041;DHT22;4555;49.918;7.012;2022-10-26T06:56:16;11.00;99.90
9041;DHT22;4555;49.918;7.012;2022-10-26T06:58:43;10.90;99.90
9041;DHT22;4555;49.918;7.012;2022-10-26T07:01:10;10.90;99.90
9041;DHT22;4555;49.918;7.012;2022-10-26T07:03:37;10.90;99.90
9041;DHT22;4555;49.918;7.012;2022-10-26T07:06:04;10.90;99.90
9041;DHT22;4555;49.918;7.012;2022-10-26T07:08:31;11.00;99.90
9041;DHT22;4555;49.918;7.012;2022-10-26T07:10:58;11.00;99.90
9041;DHT22;4555;49.918;7.012;2022-10-26T07:13:25;11.00;99.90
9041;DHT22;4555;49.918;7.012;2022-10-26T07:15:51;11.10;99.90
9041;DHT22;4555;49.918;7.012;2022-10-26T07:18:18;11.20;99.90
9041;DHT22;4555;49.918;7.012;2022-10-26T07:20:48;11.30;99.90
9041;DHT22;4555;49.918;7.012;2022-10-26T07:23:15;11.50;99.90
9041;DHT22;4555;49.918;7.012;2022-10-26T07:25:47;11.70;99.90
9041;DHT22;4555;49.918;7.012;2022-10-26T07:28:14;11.80;99.90
9041;DHT22;4555;49.918;7.012;2022-10-26T07:30:42;12.50;99.90
9041;DHT22;4555;49.918;7.012;2022-10-26T07:33:12;12.30;99.90
9041;DHT22;4555;49.918;7.012;2022-10-26T07:35:42;12.50;99.90
9041;DHT22;4555;49.918;7.012;2022-10-26T07:38:08;12.80;99.90
9041;DHT22;4555;49.918;7.012;2022-10-26T07:40:37;13.30;99.90
9041;DHT22;4555;49.918;7.012;2022-10-26T07:43:05;13.80;99.90
9041;DHT22;4555;49.918;7.012;2022-10-26T07:45:35;14.10;99.90
9041;DHT22;4555;49.918;7.012;2022-10-26T07:48:02;14.30;99.90
9041;DHT22;4555;49.918;7.012;2022-10-26T07:50:31;14.50;99.90
9041;DHT22;4555;49.918;7.012;2022-10-26T07:52:58;14.60;86.20
9041;DHT22;4555;49.918;7.012;2022-10-26T07:55:24;14.90;92.00
9041;DHT22;4555;49.918;7.012;2022-10-26T07:57:54;15.00;1.00
9041;DHT22;4555;49.918;7.012;2022-10-26T08:00:24;15.20;9.30
9041;DHT22;4555;49.918;7.012;2022-10-26T08:02:55;15.20;1.00
9041;DHT22;4555;49.918;7.012;2022-10-26T08:05:22;15.20;1.00
9041;DHT22;4555;49.918;7.012;2022-10-26T08:07:49;15.20;15.80
9041;DHT22;4555;49.918;7.012;2022-10-26T08:10:16;15.00;23.20
9041;DHT22;4555;49.918;7.012;2022-10-26T08:12:46;14.40;58.40
9041;DHT22;4555;49.918;7.012;2022-10-26T08:15:13;14.60;99.90
9041;DHT22;4555;49.918;7.012;2022-10-26T08:17:40;17.90;99.90
9041;DHT22;4555;49.918;7.012;2022-10-26T08:20:05;15.00;61.90
9041;DHT22;4555;49.918;7.012;2022-10-26T08:22:31;15.20;30.20
9041;DHT22;4555;49.918;7.012;2022-10-26T08:24:57;17.00;1.00
9041;DHT22;4555;49.918;7.012;2022-10-26T08:27:24;15.40;1.00
9041;DHT22;4555;49.918;7.012;2022-10-26T08:29:53;15.50;1.00
9041;DHT22;4555;49.918;7.012;2022-10-26T08:32:20;15.60;1.00
9041;DHT22;4555;49.918;7.012;2022-10-26T08:34:47;15.70;1.00
9041;DHT22;4555;49.918;7.012;2022-10-26T08:37:14;16.00;1.00
9041;DHT22;4555;49.918;7.012;2022-10-26T08:39:40;17.40;1.00
9041;DHT22;4555;49.918;7.012;2022-10-26T08:42:12;16.50;1.00
9041;DHT22;4555;49.918;7.012;2022-10-26T08:44:44;17.10;1.00
9041;DHT22;4555;49.918;7.012;2022-10-26T08:47:18;20.30;1.00
9041;DHT22;4555;49.918;7.012;2022-10-26T08:50:13;17.80;99.90
9041;DHT22;4555;49.918;7.012;2022-10-26T08:52:45;17.60;99.90
9041;DHT22;4555;49.918;7.012;2022-10-26T08:55:15;17.50;1.00
9041;DHT22;4555;49.918;7.012;2022-10-26T08:57:43;19.30;1.00
9041;DHT22;4555;49.918;7.012;2022-10-26T09:00:17;15.90;1.00
9041;DHT22;4555;49.918;7.012;2022-10-26T09:02:47;15.60;73.70
9041;DHT22;4555;49.918;7.012;2022-10-26T09:05:16;15.50;38.90
9041;DHT22;4555;49.918;7.012;2022-10-26T09:13:01;15.40;99.90
9041;DHT22;4555;49.918;7.012;2022-10-26T09:18:26;18.80;84.70
9041;DHT22;4555;49.918;7.012;2022-10-26T09:21:09;15.80;80.30
9041;DHT22;4555;49.918;7.012;2022-10-26T09:24:04;15.80;1.00
9041;DHT22;4555;49.918;7.012;2022-10-26T09:26:50;16.00;38.70
9041;DHT22;4555;49.918;7.012;2022-10-26T09:29:18;16.30;50.70
9041;DHT22;4555;49.918;7.012;2022-10-26T09:31:47;17.10;54.70
9041;DHT22;4555;49.918;7.012;2022-10-26T09:34:30;16.70;1.00
9041;DHT22;4555;49.918;7.012;2022-10-26T09:36:57;16.90;20.60
9041;DHT22;4555;49.918;7.012;2022-10-26T09:39:35;17.10;1.00
9041;DHT22;4555;49.918;7.012;2022-10-26T09:45:49;17.30;1.00
9041;DHT22;4555;49.918;7.012;2022-10-26T09:48:38;17.50;1.00
9041;DHT22;4555;49.918;7.012;2022-10-26T09:51:06;17.60;1.00
9041;DHT22;4555;49.918;7.012;2022-10-26T09:53:40;17.70;1.00
9041;DHT22;4555;49.918;7.012;2022-10-26T09:56:14;17.90;1.00
9041;DHT22;4555;49.918;7.012;2022-10-26T09:58:57;17.90;1.00
9041;DHT22;4555;49.918;7.012;2022-10-26T10:06:46;18.60;99.90
9041;DHT22;4555;49.918;7.012;2022-10-26T10:09:22;18.80;99.90
9041;DHT22;4555;49.918;7.012;2022-10-26T10:12:01;18.90;99.90
9041;DHT22;4555;49.918;7.012;2022-10-26T10:14:37;19.10;1.00
9041;DHT22;4555;49.918;7.012;2022-10-26T10:17:06;19.10;95.50
9041;DHT22;4555;49.918;7.012;2022-10-26T10:19:39;19.20;1.00
9041;DHT22;4555;49.918;7.012;2022-10-26T10:22:18;19.40;1.00
9041;DHT22;4555;49.918;7.012;2022-10-26T10:25:00;19.90;1.00
9041;DHT22;4555;49.918;7.012;2022-10-26T10:27:28;20.40;93.30
9041;DHT22;4555;49.918;7.012;2022-10-26T10:29:56;20.70;1.00
9041;DHT22;4555;49.918;7.012;2022-10-26T10:32:27;20.60;99.90
9041;DHT22;4555;49.918;7.012;2022-10-26T10:34:57;20.50;99.90
9041;DHT22;4555;49.918;7.012;2022-10-26T10:37:40;22.40;1.00
9041;DHT22;4555;49.918;7.012;2022-10-26T10:40:18;22.00;1.00
9041;DHT22;4555;49.918;7.012;2022-10-26T10:42:45;20.90;1.00
9041;DHT22;4555;49.918;7.012;2022-10-26T10:45:27;21.00;99.90
9041;DHT22;4555;49.918;7.012;2022-10-26T10:48:13;21.10;99.90
9041;DHT22;4555;49.918;7.012;2022-10-26T10:51:02;21.10;99.90
9041;DHT22;4555;49.918;7.012;2022-10-26T10:53:47;21.10;1.00
9041;DHT22;4555;49.918;7.012;2022-10-26T11:01:38;21.20;1.00
9041;DHT22;4555;49.918;7.012;2022-10-26T11:07:14;21.60;1.00
9041;DHT22;4555;49.918;7.012;2022-10-26T11:09:42;21.50;99.90
9041;DHT22;4555;49.918;7.012;2022-10-26T11:12:17;21.60;99.90
9041;DHT22;4555;49.918;7.012;2022-10-26T11:15:02;21.60;99.90
9041;DHT22;4555;49.918;7.012;2022-10-26T11:17:35;21.60;99.90
9041;DHT22;4555;49.918;7.012;2022-10-26T11:20:12;21.60;99.90
9041;DHT22;4555;49.918;7.012;2022-10-26T11:22:53;21.80;1.00
9041;DHT22;4555;49.918;7.012;2022-10-26T11:25:34;21.80;1.00
9041;DHT22;4555;49.918;7.012;2022-10-26T11:28:34;21.90;1.00
9041;DHT22;4555;49.918;7.012;2022-10-26T11:31:27;22.00;99.90
9041;DHT22;4555;49.918;7.012;2022-10-26T11:34:23;22.00;1.00
9041;DHT22;4555;49.918;7.012;2022-10-26T11:37:01;22.00;99.90
9041;DHT22;4555;49.918;7.012;2022-10-26T11:39:35;21.90;94.60
9041;DHT22;4555;49.918;7.012;2022-10-26T11:45:00;22.40;1.00
9041;DHT22;4555;49.918;7.012;2022-10-26T11:47:39;22.30;1.00
9041;DHT22;4555;49.918;7.012;2022-10-26T11:50:18;22.10;1.00
9041;DHT22;4555;49.918;7.012;2022-10-26T11:52:56;22.10;1.00
9041;DHT22;4555;49.918;7.012;2022-10-26T11:55:28;23.50;99.90
9041;DHT22;4555;49.918;7.012;2022-10-26T11:58:17;21.70;99.90
9041;DHT22;4555;49.918;7.012;2022-10-26T12:01:09;21.80;1.00
9041;DHT22;4555;49.918;7.012;2022-10-26T12:03:41;21.80;1.00
9041;DHT22;4555;49.918;7.012;2022-10-26T12:06:12;21.80;99.90
9041;DHT22;4555;49.918;7.012;2022-10-26T12:08:42;21.60;99.90
9041;DHT22;4555;49.918;7.012;2022-10-26T12:11:17;23.20;1.00
9041;DHT22;4555;49.918;7.012;2022-10-26T12:19:23;22.20;99.90
9041;DHT22;4555;49.918;7.012;2022-10-26T12:21:51;22.40;99.90
9041;DHT22;4555;49.918;7.012;2022-10-26T12:26:53;22.20;99.90
9041;DHT22;4555;49.918;7.012;2022-10-26T12:29:36;22.00;99.90
9041;DHT22;4555;49.918;7.012;2022-10-26T12:32:04;21.90;99.90
9041;DHT22;4555;49.918;7.012;2022-10-26T12:39:31;22.00;99.90
9041;DHT22;4555;49.918;7.012;2022-10-26T13:06:33;22.70;99.90
9041;DHT22;4555;49.918;7.012;2022-10-26T13:09:11;23.00;99.90
9041;DHT22;4555;49.918;7.012;2022-10-26T13:11:44;22.90;99.90
9041;DHT22;4555;49.918;7.012;2022-10-26T13:14:19;23.50;99.90
9041;DHT22;4555;49.918;7.012;2022-10-26T13:16:51;23.20;99.90
9041;DHT22;4555;49.918;7.012;2022-10-26T13:22:22;22.50;99.90
9041;DHT22;4555;49.918;7.012;2022-10-26T13:25:00;22.40;99.90
9041;DHT22;4555;49.918;7.012;2022-10-26T13:27:40;22.20;99.90
9041;DHT22;4555;49.918;7.012;2022-10-26T13:32:57;22.40;99.90
9041;DHT22;4555;49.918;7.012;2022-10-26T13:35:25;23.90;99.90
9041;DHT22;4555;49.918;7.012;2022-10-26T13:37:54;22.30;99.90
9041;DHT22;4555;49.918;7.012;2022-10-26T13:40:22;22.20;99.90
9041;DHT22;4555;49.918;7.012;2022-10-26T13:42:56;22.20;99.90
9041;DHT22;4555;49.918;7.012;2022-10-26T13:45:38;22.20;99.90
9041;DHT22;4555;49.918;7.012;2022-10-26T13:48:19;22.20;99.90
9041;DHT22;4555;49.918;7.012;2022-10-26T13:59:04;22.10;99.90
9041;DHT22;4555;49.918;7.012;2022-10-26T14:01:37;22.20;99.90
9041;DHT22;4555;49.918;7.012;2022-10-26T14:04:25;22.30;99.90
9041;DHT22;4555;49.918;7.012;2022-10-26T14:06:53;22.40;99.90
9041;DHT22;4555;49.918;7.012;2022-10-26T14:09:23;22.30;99.90
9041;DHT22;4555;49.918;7.012;2022-10-26T14:12:12;22.30;99.90
9041;DHT22;4555;49.918;7.012;2022-10-26T14:14:39;22.20;99.90
9041;DHT22;4555;49.918;7.012;2022-10-26T14:17:05;22.00;99.90
9041;DHT22;4555;49.918;7.012;2022-10-26T14:19:32;21.90;99.90
9041;DHT22;4555;49.918;7.012;2022-10-26T14:21:59;21.90;99.90
9041;DHT22;4555;49.918;7.012;2022-10-26T14:24:31;21.90;99.90
9041;DHT22;4555;49.918;7.012;2022-10-26T14:26:57;22.10;99.90
9041;DHT22;4555;49.918;7.012;2022-10-26T14:29:25;22.20;99.90
9041;DHT22;4555;49.918;7.012;2022-10-26T14:31:52;22.30;99.90
9041;DHT22;4555;49.918;7.012;2022-10-26T14:34:19;23.00;99.90
9041;DHT22;4555;49.918;7.012;2022-10-26T14:36:53;22.20;99.90
9041;DHT22;4555;49.918;7.012;2022-10-26T14:39:32;22.30;99.90
9041;DHT22;4555;49.918;7.012;2022-10-26T14:42:12;22.30;99.90
9041;DHT22;4555;49.918;7.012;2022-10-26T14:44:40;22.30;99.90
9041;DHT22;4555;49.918;7.012;2022-10-26T14:47:13;22.40;99.90
9041;DHT22;4555;49.918;7.012;2022-10-26T14:49:47;22.40;99.90
9041;DHT22;4555;49.918;7.012;2022-10-26T14:52:23;22.20;99.90
9041;DHT22;4555;49.918;7.012;2022-10-26T14:54:58;22.10;99.90
9041;DHT22;4555;49.918;7.012;2022-10-26T14:57:35;22.00;99.90
9041;DHT22;4555;49.918;7.012;2022-10-26T15:00:23;21.90;99.90
9041;DHT22;4555;49.918;7.012;2022-10-26T15:02:59;21.80;99.90
9041;DHT22;4555;49.918;7.012;2022-10-26T15:05:28;21.70;99.90
9041;DHT22;4555;49.918;7.012;2022-10-26T15:07:57;21.50;99.90
9041;DHT22;4555;49.918;7.012;2022-10-26T15:13:23;21.40;99.90
9041;DHT22;4555;49.918;7.012;2022-10-26T15:15:51;21.40;99.90
9041;DHT22;4555;49.918;7.012;2022-10-26T15:18:51;21.40;99.90
9041;DHT22;4555;49.918;7.012;2022-10-26T15:21:36;21.50;99.90
9041;DHT22;4555;49.918;7.012;2022-10-26T15:24:26;21.50;99.90
9041;DHT22;4555;49.918;7.012;2022-10-26T15:26:54;21.60;99.90
9041;DHT22;4555;49.918;7.012;2022-10-26T15:29:44;21.70;99.90
9041;DHT22;4555;49.918;7.012;2022-10-26T15:32:31;21.80;99.90
9041;DHT22;4555;49.918;7.012;2022-10-26T15:37:38;22.60;99.90
9041;DHT22;4555;49.918;7.012;2022-10-26T15:40:04;22.50;99.90
9041;DHT22;4555;49.918;7.012;2022-10-26T15:42:30;21.50;99.90
9041;DHT22;4555;49.918;7.012;2022-10-26T15:44:57;21.80;99.90
9041;DHT22;4555;49.918;7.012;2022-10-26T15:47:28;21.50;99.90
9041;DHT22;4555;49.918;7.012;2022-10-26T15:49:56;22.70;99.90
9041;DHT22;4555;49.918;7.012;2022-10-26T15:52:22;22.00;99.90
9041;DHT22;4555;49.918;7.012;2022-10-26T15:54:47;21.60;99.90
9041;DHT22;4555;49.918;7.012;2022-10-26T15:57:13;20.70;99.90
9041;DHT22;4555;49.918;7.012;2022-10-26T15:59:39;22.00;99.90
9041;DHT22;4555;49.918;7.012;2022-10-26T16:02:15;21.60;1.00
9041;DHT22;4555;49.918;7.012;2022-10-26T16:04:41;20.10;22.10
9041;DHT22;4555;49.918;7.012;2022-10-26T16:07:14;20.20;99.90
9041;DHT22;4555;49.918;7.012;2022-10-26T16:09:45;19.40;99.90
9041;DHT22;4555;49.918;7.012;2022-10-26T16:12:21;19.20;1.00
9041;DHT22;4555;49.918;7.012;2022-10-26T16:14:51;19.10;1.00
9041;DHT22;4555;49.918;7.012;2022-10-26T16:17:26;19.00;1.00
9041;DHT22;4555;49.918;7.012;2022-10-26T16:19:52;18.80;1.00
9041;DHT22;4555;49.918;7.012;2022-10-26T16:22:17;18.60;1.00
9041;DHT22;4555;49.918;7.012;2022-10-26T16:24:43;18.50;99.90
9041;DHT22;4555;49.918;7.012;2022-10-26T16:27:08;18.40;1.00
9041;DHT22;4555;49.918;7.012;2022-10-26T16:29:34;18.40;28.00
9041;DHT22;4555;49.918;7.012;2022-10-26T16:32:00;19.50;99.90
9041;DHT22;4555;49.918;7.012;2022-10-26T16:34:25;19.90;15.50
9041;DHT22;4555;49.918;7.012;2022-10-26T16:37:04;17.90;1.00
9041;DHT22;4555;49.918;7.012;2022-10-26T16:39:40;17.60;99.90
9041;DHT22;4555;49.918;7.012;2022-10-26T16:42:05;17.40;1.00
9041;DHT22;4555;49.918;7.012;2022-10-26T16:44:31;15.70;23.60
9041;DHT22;4555;49.918;7.012;2022-10-26T16:47:03;20.40;99.90
9041;DHT22;4555;49.918;7.012;2022-10-26T16:49:29;16.80;99.90
9041;DHT22;4555;49.918;7.012;2022-10-26T16:51:55;16.70;99.90
9041;DHT22;4555;49.918;7.012;2022-10-26T16:54:21;18.00;99.90
9041;DHT22;4555;49.918;7.012;2022-10-26T16:56:48;16.70;99.90
9041;DHT22;4555;49.918;7.012;2022-10-26T16:59:14;16.60;99.90
9041;DHT22;4555;49.918;7.012;2022-10-26T17:01:40;16.60;99.90
9041;DHT22;4555;49.918;7.012;2022-10-26T17:04:06;16.70;99.90
9041;DHT22;4555;49.918;7.012;2022-10-26T17:06:31;17.70;99.90
9041;DHT22;4555;49.918;7.012;2022-10-26T17:08:57;16.50;99.90
9041;DHT22;4555;49.918;7.012;2022-10-26T17:11:23;16.50;99.90
9041;DHT22;4555;49.918;7.012;2022-10-26T17:13:52;19.10;99.90
9041;DHT22;4555;49.918;7.012;2022-10-26T17:16:20;19.50;99.90
9041;DHT22;4555;49.918;7.012;2022-10-26T17:18:47;17.50;1.00
9041;DHT22;4555;49.918;7.012;2022-10-26T17:21:14;16.00;1.00
9041;DHT22;4555;49.918;7.012;2022-10-26T17:23:40;16.10;1.00
9041;DHT22;4555;49.918;7.012;2022-10-26T17:26:08;17.20;1.00
9041;DHT22;4555;49.918;7.012;2022-10-26T17:28:34;19.30;1.00
9041;DHT22;4555;49.918;7.012;2022-10-26T17:33:27;16.70;1.00
9041;DHT22;4555;49.918;7.012;2022-10-26T17:36:03;15.50;1.00
9041;DHT22;4555;49.918;7.012;2022-10-26T17:38:35;15.50;1.00
9041;DHT22;4555;49.918;7.012;2022-10-26T17:41:05;15.40;1.00
9041;DHT22;4555;49.918;7.012;2022-10-26T17:43:43;15.30;1.00
9041;DHT22;4555;49.918;7.012;2022-10-26T17:46:16;16.40;1.00
9041;DHT22;4555;49.918;7.012;2022-10-26T17:48:42;15.10;1.00
9041;DHT22;4555;49.918;7.012;2022-10-26T17:51:13;16.10;1.00
9041;DHT22;4555;49.918;7.012;2022-10-26T17:53:39;18.10;1.00
9041;DHT22;4555;49.918;7.012;2022-10-26T17:56:17;16.30;2.30
9041;DHT22;4555;49.918;7.012;2022-10-26T17:58:55;14.90;25.80
9041;DHT22;4555;49.918;7.012;2022-10-26T18:01:24;14.80;50.90
9041;DHT22;4555;49.918;7.012;2022-10-26T18:03:53;14.70;71.00
9041;DHT22;4555;49.918;7.012;2022-10-26T18:06:20;14.60;99.90
9041;DHT22;4555;49.918;7.012;2022-10-26T18:08:45;17.60;99.90
9041;DHT22;4555;49.918;7.012;2022-10-26T18:11:13;15.60;99.90
9041;DHT22;4555;49.918;7.012;2022-10-26T18:13:39;14.60;99.90
9041;DHT22;4555;49.918;7.012;2022-10-26T18:16:09;14.50;99.90
9041;DHT22;4555;49.918;7.012;2022-10-26T18:18:44;14.40;99.90
9041;DHT22;4555;49.918;7.012;2022-10-26T18:21:18;14.30;99.90
9041;DHT22;4555;49.918;7.012;2022-10-26T18:23:45;14.20;99.90
9041;DHT22;4555;49.918;7.012;2022-10-26T18:26:30;14.10;99.90
9041;DHT22;4555;49.918;7.012;2022-10-26T18:28:57;14.00;99.90
9041;DHT22;4555;49.918;7.012;2022-10-26T18:31:24;13.90;99.90
9041;DHT22;4555;49.918;7.012;2022-10-26T18:33:55;16.10;99.90
9041;DHT22;4555;49.918;7.012;2022-10-26T18:36:21;13.80;99.90
9041;DHT22;4555;49.918;7.012;2022-10-26T18:38:47;13.70;99.90
9041;DHT22;4555;49.918;7.012;2022-10-26T18:41:14;14.00;99.90
9041;DHT22;4555;49.918;7.012;2022-10-26T18:43:42;15.60;99.90
9041;DHT22;4555;49.918;7.012;2022-10-26T18:46:13;13.60;99.90
9041;DHT22;4555;49.918;7.012;2022-10-26T18:48:39;13.50;99.90
9041;DHT22;4555;49.918;7.012;2022-10-26T18:51:11;13.50;99.90
9041;DHT22;4555;49.918;7.012;2022-10-26T18:53:37;13.40;99.90
9041;DHT22;4555;49.918;7.012;2022-10-26T19:01:37;13.30;99.90
9041;DHT22;4555;49.918;7.012;2022-10-26T19:04:07;13.50;99.90
9041;DHT22;4555;49.918;7.012;2022-10-26T19:06:44;13.30;99.90
9041;DHT22;4555;49.918;7.012;2022-10-26T19:09:15;15.70;99.90
9041;DHT22;4555;49.918;7.012;2022-10-26T19:11:42;13.50;99.90
9041;DHT22;4555;49.918;7.012;2022-10-26T19:14:09;13.10;99.90
9041;DHT22;4555;49.918;7.012;2022-10-26T19:16:35;14.80;99.90
9041;DHT22;4555;49.918;7.012;2022-10-26T19:19:02;15.90;99.90
9041;DHT22;4555;49.918;7.012;2022-10-26T19:21:30;13.10;99.90
9041;DHT22;4555;49.918;7.012;2022-10-26T19:23:58;13.10;99.90
9041;DHT22;4555;49.918;7.012;2022-10-26T19:26:26;13.00;99.90
9041;DHT22;4555;49.918;7.012;2022-10-26T19:28:54;12.90;99.90
9041;DHT22;4555;49.918;7.012;2022-10-26T19:31:20;15.00;99.90
9041;DHT22;4555;49.918;7.012;2022-10-26T19:33:46;12.70;99.90
9041;DHT22;4555;49.918;7.012;2022-10-26T19:36:11;12.60;99.90
9041;DHT22;4555;49.918;7.012;2022-10-26T19:38:38;12.70;99.90
9041;DHT22;4555;49.918;7.012;2022-10-26T19:41:09;15.90;99.90
9041;DHT22;4555;49.918;7.012;2022-10-26T19:43:36;12.70;99.90
9041;DHT22;4555;49.918;7.012;2022-10-26T19:46:13;12.70;99.90
9041;DHT22;4555;49.918;7.012;2022-10-26T19:48:39;12.60;99.90